sensor_id;sensor_type;location;lat;lon;timestamp;P1;durP1;ratioP1;P2;durP2;ratioP2
24206;SDS011;12351;52.284;9.160;2023-03-14T00:01:43;4.12;;;1.32;;
24206;SDS011;12351;52.284;9.160;2023-03-14T00:04:34;4.60;;;1.45;;
24206;SDS011;12351;52.284;9.160;2023-03-14T00:07:24;4.80;;;1.30;;
24206;SDS011;12351;52.284;9.160;2023-03-14T00:10:17;3.12;;;1.15;;
24206;SDS011;12351;52.284;9.160;2023-03-14T00:13:07;2.67;;;1.37;;
24206;SDS011;12351;52.284;9.160;2023-03-14T00:16:01;3.77;;;1.40;;
24206;SDS011;12351;52.284;9.160;2023-03-14T00:18:48;4.35;;;1.25;;
24206;SDS011;12351;52.284;9.160;2023-03-14T00:21:40;2.85;;;1.10;;
24206;SDS011;12351;52.284;9.160;2023-03-14T00:24:30;4.75;;;1.20;;
24206;SDS011;12351;52.284;9.160;2023-03-14T00:27:22;4.78;;;0.90;;
24206;SDS011;12351;52.284;9.160;2023-03-14T00:30:13;8.43;;;1.20;;
24206;SDS011;12351;52.284;9.160;2023-03-14T00:33:04;3.42;;;1.27;;
24206;SDS011;12351;52.284;9.160;2023-03-14T00:35:55;5.35;;;1.40;;
24206;SDS011;12351;52.284;9.160;2023-03-14T00:38:45;5.70;;;1.30;;
24206;SDS011;12351;52.284;9.160;2023-03-14T00:41:37;3.55;;;1.35;;
24206;SDS011;12351;52.284;9.160;2023-03-14T00:44:26;5.05;;;1.37;;
24206;SDS011;12351;52.284;9.160;2023-03-14T00:47:18;3.35;;;1.07;;
24206;SDS011;12351;52.284;9.160;2023-03-14T00:50:08;4.22;;;1.02;;
24206;SDS011;12351;52.284;9.160;2023-03-14T00:52:59;5.15;;;1.32;;
24206;SDS011;12351;52.284;9.160;2023-03-14T00:55:48;4.60;;;1.10;;
24206;SDS011;12351;52.284;9.160;2023-03-14T00:58:38;6.97;;;1.27;;
24206;SDS011;12351;52.284;9.160;2023-03-14T01:01:27;4.30;;;1.47;;
24206;SDS011;12351;52.284;9.160;2023-03-14T01:04:17;5.28;;;1.35;;
24206;SDS011;12351;52.284;9.160;2023-03-14T01:07:06;5.17;;;1.47;;
24206;SDS011;12351;52.284;9.160;2023-03-14T01:09:56;8.48;;;1.47;;
24206;SDS011;12351;52.284;9.160;2023-03-14T01:12:44;4.50;;;1.12;;
24206;SDS011;12351;52.284;9.160;2023-03-14T01:15:35;5.08;;;1.30;;
24206;SDS011;12351;52.284;9.160;2023-03-14T01:18:25;3.90;;;1.30;;
24206;SDS011;12351;52.284;9.160;2023-03-14T01:21:15;5.60;;;1.17;;
24206;SDS011;12351;52.284;9.160;2023-03-14T01:24:06;4.60;;;1.40;;
24206;SDS011;12351;52.284;9.160;2023-03-14T01:26:55;6.10;;;1.47;;
24206;SDS011;12351;52.284;9.160;2023-03-14T01:29:44;5.97;;;1.37;;
24206;SDS011;12351;52.284;9.160;2023-03-14T01:32:34;5.25;;;1.37;;
24206;SDS011;12351;52.284;9.160;2023-03-14T01:35:25;5.70;;;1.05;;
24206;SDS011;12351;52.284;9.160;2023-03-14T01:38:18;4.90;;;1.22;;
24206;SDS011;12351;52.284;9.160;2023-03-14T01:41:10;3.85;;;1.32;;
24206;SDS011;12351;52.284;9.160;2023-03-14T01:43:59;5.60;;;1.10;;
24206;SDS011;12351;52.284;9.160;2023-03-14T01:46:50;3.90;;;1.30;;
24206;SDS011;12351;52.284;9.160;2023-03-14T01:49:41;4.60;;;1.10;;
24206;SDS011;12351;52.284;9.160;2023-03-14T01:52:33;7.62;;;1.30;;
24206;SDS011;12351;52.284;9.160;2023-03-14T01:55:24;7.33;;;1.10;;
24206;SDS011;12351;52.284;9.160;2023-03-14T01:58:15;5.58;;;1.30;;
24206;SDS011;12351;52.284;9.160;2023-03-14T02:01:08;3.70;;;1.25;;
24206;SDS011;12351;52.284;9.160;2023-03-14T02:03:59;3.10;;;1.22;;
24206;SDS011;12351;52.284;9.160;2023-03-14T02:09:39;4.10;;;1.00;;
24206;SDS011;12351;52.284;9.160;2023-03-14T02:12:28;4.60;;;1.10;;
24206;SDS011;12351;52.284;9.160;2023-03-14T02:15:18;4.65;;;1.22;;
24206;SDS011;12351;52.284;9.160;2023-03-14T02:18:10;3.33;;;1.05;;
24206;SDS011;12351;52.284;9.160;2023-03-14T02:23:53;5.00;;;1.32;;
24206;SDS011;12351;52.284;9.160;2023-03-14T02:26:43;7.10;;;1.25;;
24206;SDS011;12351;52.284;9.160;2023-03-14T02:29:33;5.37;;;1.10;;
24206;SDS011;12351;52.284;9.160;2023-03-14T02:32:26;4.83;;;1.20;;
24206;SDS011;12351;52.284;9.160;2023-03-14T02:35:18;4.62;;;1.45;;
24206;SDS011;12351;52.284;9.160;2023-03-14T02:41:00;4.50;;;1.12;;
24206;SDS011;12351;52.284;9.160;2023-03-14T02:43:51;5.03;;;0.98;;
24206;SDS011;12351;52.284;9.160;2023-03-14T02:46:42;4.40;;;1.25;;
24206;SDS011;12351;52.284;9.160;2023-03-14T02:49:33;5.65;;;1.10;;
24206;SDS011;12351;52.284;9.160;2023-03-14T02:52:22;4.78;;;1.50;;
24206;SDS011;12351;52.284;9.160;2023-03-14T02:55:14;8.18;;;1.12;;
24206;SDS011;12351;52.284;9.160;2023-03-14T02:58:02;6.70;;;1.30;;
24206;SDS011;12351;52.284;9.160;2023-03-14T03:00:54;3.52;;;1.07;;
24206;SDS011;12351;52.284;9.160;2023-03-14T03:03:44;4.28;;;1.32;;
24206;SDS011;12351;52.284;9.160;2023-03-14T03:06:36;3.85;;;1.07;;
24206;SDS011;12351;52.284;9.160;2023-03-14T03:09:25;5.67;;;1.22;;
24206;SDS011;12351;52.284;9.160;2023-03-14T03:12:15;7.33;;;1.10;;
24206;SDS011;12351;52.284;9.160;2023-03-14T03:15:05;6.42;;;1.00;;
24206;SDS011;12351;52.284;9.160;2023-03-14T03:17:56;5.12;;;1.22;;
24206;SDS011;12351;52.284;9.160;2023-03-14T03:20:48;2.05;;;0.80;;
24206;SDS011;12351;52.284;9.160;2023-03-14T03:23:39;2.95;;;0.40;;
24206;SDS011;12351;52.284;9.160;2023-03-14T03:26:29;1.37;;;0.40;;
24206;SDS011;12351;52.284;9.160;2023-03-14T03:29:19;1.45;;;0.40;;
24206;SDS011;12351;52.284;9.160;2023-03-14T03:32:11;1.52;;;0.37;;
24206;SDS011;12351;52.284;9.160;2023-03-14T03:35:03;3.30;;;0.40;;
24206;SDS011;12351;52.284;9.160;2023-03-14T03:37:55;2.02;;;0.33;;
24206;SDS011;12351;52.284;9.160;2023-03-14T03:40:44;1.57;;;0.50;;
24206;SDS011;12351;52.284;9.160;2023-03-14T03:43:36;1.50;;;0.50;;
24206;SDS011;12351;52.284;9.160;2023-03-14T03:46:28;2.23;;;0.40;;
24206;SDS011;12351;52.284;9.160;2023-03-14T03:49:19;4.03;;;0.70;;
24206;SDS011;12351;52.284;9.160;2023-03-14T03:52:10;3.37;;;0.60;;
24206;SDS011;12351;52.284;9.160;2023-03-14T03:55:01;2.60;;;0.47;;
24206;SDS011;12351;52.284;9.160;2023-03-14T03:57:51;3.65;;;0.50;;
24206;SDS011;12351;52.284;9.160;2023-03-14T04:00:43;1.67;;;0.40;;
24206;SDS011;12351;52.284;9.160;2023-03-14T04:03:33;3.50;;;0.70;;
24206;SDS011;12351;52.284;9.160;2023-03-14T04:06:25;3.80;;;0.70;;
24206;SDS011;12351;52.284;9.160;2023-03-14T04:09:15;3.58;;;0.65;;
24206;SDS011;12351;52.284;9.160;2023-03-14T04:12:08;5.20;;;0.90;;
24206;SDS011;12351;52.284;9.160;2023-03-14T04:14:58;3.45;;;0.93;;
24206;SDS011;12351;52.284;9.160;2023-03-14T04:17:49;3.80;;;0.70;;
24206;SDS011;12351;52.284;9.160;2023-03-14T04:20:40;6.12;;;0.75;;
24206;SDS011;12351;52.284;9.160;2023-03-14T04:23:32;1.10;;;0.50;;
24206;SDS011;12351;52.284;9.160;2023-03-14T04:26:21;2.95;;;0.72;;
24206;SDS011;12351;52.284;9.160;2023-03-14T04:29:14;2.72;;;0.60;;
24206;SDS011;12351;52.284;9.160;2023-03-14T04:32:03;2.72;;;0.42;;
24206;SDS011;12351;52.284;9.160;2023-03-14T04:34:55;2.90;;;0.60;;
24206;SDS011;12351;52.284;9.160;2023-03-14T04:37:46;2.75;;;0.80;;
24206;SDS011;12351;52.284;9.160;2023-03-14T04:40:38;3.50;;;0.85;;
24206;SDS011;12351;52.284;9.160;2023-03-14T04:43:29;4.08;;;0.65;;
24206;SDS011;12351;52.284;9.160;2023-03-14T04:46:18;2.70;;;0.70;;
24206;SDS011;12351;52.284;9.160;2023-03-14T04:49:10;3.92;;;0.90;;
24206;SDS011;12351;52.284;9.160;2023-03-14T04:52:01;8.88;;;0.90;;
24206;SDS011;12351;52.284;9.160;2023-03-14T04:54:53;6.20;;;0.80;;
24206;SDS011;12351;52.284;9.160;2023-03-14T04:57:44;3.30;;;0.80;;
24206;SDS011;12351;52.284;9.160;2023-03-14T05:00:34;3.67;;;0.90;;
24206;SDS011;12351;52.284;9.160;2023-03-14T05:03:26;3.87;;;0.72;;
24206;SDS011;12351;52.284;9.160;2023-03-14T05:06:17;6.67;;;1.15;;
24206;SDS011;12351;52.284;9.160;2023-03-14T05:09:08;4.97;;;0.80;;
24206;SDS011;12351;52.284;9.160;2023-03-14T05:12:01;5.12;;;1.10;;
24206;SDS011;12351;52.284;9.160;2023-03-14T05:14:50;4.58;;;1.50;;
24206;SDS011;12351;52.284;9.160;2023-03-14T05:17:40;4.05;;;1.05;;
24206;SDS011;12351;52.284;9.160;2023-03-14T05:20:30;3.05;;;0.80;;
24206;SDS011;12351;52.284;9.160;2023-03-14T05:23:19;5.45;;;1.05;;
24206;SDS011;12351;52.284;9.160;2023-03-14T05:26:12;4.75;;;1.20;;
24206;SDS011;12351;52.284;9.160;2023-03-14T05:29:01;7.42;;;1.62;;
24206;SDS011;12351;52.284;9.160;2023-03-14T05:31:51;8.98;;;1.50;;
24206;SDS011;12351;52.284;9.160;2023-03-14T05:34:41;4.55;;;1.40;;
24206;SDS011;12351;52.284;9.160;2023-03-14T05:37:32;4.80;;;1.10;;
24206;SDS011;12351;52.284;9.160;2023-03-14T05:40:24;7.28;;;1.40;;
24206;SDS011;12351;52.284;9.160;2023-03-14T05:43:13;9.45;;;1.50;;
24206;SDS011;12351;52.284;9.160;2023-03-14T05:46:03;5.30;;;0.90;;
24206;SDS011;12351;52.284;9.160;2023-03-14T05:48:54;5.58;;;1.60;;
24206;SDS011;12351;52.284;9.160;2023-03-14T05:51:46;4.58;;;1.05;;
24206;SDS011;12351;52.284;9.160;2023-03-14T05:54:36;4.62;;;1.15;;
24206;SDS011;12351;52.284;9.160;2023-03-14T05:57:28;6.50;;;1.10;;
24206;SDS011;12351;52.284;9.160;2023-03-14T06:00:18;6.15;;;1.02;;
24206;SDS011;12351;52.284;9.160;2023-03-14T06:03:11;12.58;;;1.35;;
24206;SDS011;12351;52.284;9.160;2023-03-14T06:06:00;5.08;;;1.20;;
24206;SDS011;12351;52.284;9.160;2023-03-14T06:08:51;5.05;;;1.12;;
24206;SDS011;12351;52.284;9.160;2023-03-14T06:11:40;1.80;;;0.60;;
24206;SDS011;12351;52.284;9.160;2023-03-14T06:14:31;5.90;;;1.12;;
24206;SDS011;12351;52.284;9.160;2023-03-14T06:17:21;4.72;;;0.80;;
24206;SDS011;12351;52.284;9.160;2023-03-14T06:20:11;5.53;;;0.90;;
24206;SDS011;12351;52.284;9.160;2023-03-14T06:23:01;5.35;;;0.88;;
24206;SDS011;12351;52.284;9.160;2023-03-14T06:25:53;2.60;;;0.60;;
24206;SDS011;12351;52.284;9.160;2023-03-14T06:28:46;5.75;;;0.88;;
24206;SDS011;12351;52.284;9.160;2023-03-14T06:31:37;4.25;;;0.90;;
24206;SDS011;12351;52.284;9.160;2023-03-14T06:34:26;2.92;;;0.60;;
24206;SDS011;12351;52.284;9.160;2023-03-14T06:37:19;2.47;;;0.60;;
24206;SDS011;12351;52.284;9.160;2023-03-14T06:40:09;1.40;;;0.40;;
24206;SDS011;12351;52.284;9.160;2023-03-14T06:43:00;1.17;;;0.47;;
24206;SDS011;12351;52.284;9.160;2023-03-14T06:45:50;2.08;;;0.57;;
24206;SDS011;12351;52.284;9.160;2023-03-14T06:48:38;1.52;;;0.28;;
24206;SDS011;12351;52.284;9.160;2023-03-14T06:51:30;1.02;;;0.40;;
24206;SDS011;12351;52.284;9.160;2023-03-14T06:54:23;0.72;;;0.40;;
24206;SDS011;12351;52.284;9.160;2023-03-14T06:57:14;1.87;;;0.65;;
24206;SDS011;12351;52.284;9.160;2023-03-14T07:00:03;1.87;;;0.50;;
24206;SDS011;12351;52.284;9.160;2023-03-14T07:02:52;1.47;;;0.47;;
24206;SDS011;12351;52.284;9.160;2023-03-14T07:05:45;3.47;;;0.82;;
24206;SDS011;12351;52.284;9.160;2023-03-14T07:08:37;2.00;;;0.50;;
24206;SDS011;12351;52.284;9.160;2023-03-14T07:11:27;2.08;;;0.30;;
24206;SDS011;12351;52.284;9.160;2023-03-14T07:14:18;1.05;;;0.20;;
24206;SDS011;12351;52.284;9.160;2023-03-14T07:17:06;0.98;;;0.20;;
24206;SDS011;12351;52.284;9.160;2023-03-14T07:19:56;0.57;;;0.23;;
24206;SDS011;12351;52.284;9.160;2023-03-14T07:22:47;1.05;;;0.20;;
24206;SDS011;12351;52.284;9.160;2023-03-14T07:25:36;2.08;;;0.28;;
24206;SDS011;12351;52.284;9.160;2023-03-14T07:28:29;0.88;;;0.20;;
24206;SDS011;12351;52.284;9.160;2023-03-14T07:31:18;1.05;;;0.30;;
24206;SDS011;12351;52.284;9.160;2023-03-14T07:34:12;0.85;;;0.30;;
24206;SDS011;12351;52.284;9.160;2023-03-14T07:37:04;0.88;;;0.30;;
24206;SDS011;12351;52.284;9.160;2023-03-14T07:39:56;0.80;;;0.35;;
24206;SDS011;12351;52.284;9.160;2023-03-14T07:42:46;2.72;;;0.40;;
24206;SDS011;12351;52.284;9.160;2023-03-14T07:45:35;1.15;;;0.40;;
24206;SDS011;12351;52.284;9.160;2023-03-14T07:48:27;1.60;;;0.40;;
24206;SDS011;12351;52.284;9.160;2023-03-14T07:51:18;0.40;;;0.20;;
24206;SDS011;12351;52.284;9.160;2023-03-14T07:54:07;0.35;;;0.20;;
24206;SDS011;12351;52.284;9.160;2023-03-14T07:56:57;2.17;;;0.40;;
24206;SDS011;12351;52.284;9.160;2023-03-14T07:59:48;1.55;;;0.30;;
24206;SDS011;12351;52.284;9.160;2023-03-14T08:02:39;1.10;;;0.20;;
24206;SDS011;12351;52.284;9.160;2023-03-14T08:05:28;1.20;;;0.40;;
24206;SDS011;12351;52.284;9.160;2023-03-14T08:08:21;1.82;;;0.30;;
24206;SDS011;12351;52.284;9.160;2023-03-14T08:14:06;1.52;;;0.30;;
24206;SDS011;12351;52.284;9.160;2023-03-14T08:16:55;1.72;;;0.40;;
24206;SDS011;12351;52.284;9.160;2023-03-14T08:19:45;1.80;;;0.42;;
24206;SDS011;12351;52.284;9.160;2023-03-14T08:22:35;1.00;;;0.50;;
24206;SDS011;12351;52.284;9.160;2023-03-14T08:25:27;1.20;;;0.50;;
24206;SDS011;12351;52.284;9.160;2023-03-14T08:31:09;3.27;;;0.50;;
24206;SDS011;12351;52.284;9.160;2023-03-14T08:33:59;1.30;;;0.50;;
24206;SDS011;12351;52.284;9.160;2023-03-14T08:36:52;0.65;;;0.30;;
24206;SDS011;12351;52.284;9.160;2023-03-14T08:39:42;1.15;;;0.47;;
24206;SDS011;12351;52.284;9.160;2023-03-14T08:42:32;3.58;;;0.47;;
24206;SDS011;12351;52.284;9.160;2023-03-14T08:45:24;0.90;;;0.57;;
24206;SDS011;12351;52.284;9.160;2023-03-14T08:48:15;1.42;;;0.50;;
24206;SDS011;12351;52.284;9.160;2023-03-14T08:53:58;1.55;;;0.50;;
24206;SDS011;12351;52.284;9.160;2023-03-14T08:56:51;2.35;;;0.60;;
24206;SDS011;12351;52.284;9.160;2023-03-14T08:59:40;2.62;;;0.70;;
24206;SDS011;12351;52.284;9.160;2023-03-14T09:02:32;2.00;;;0.62;;
24206;SDS011;12351;52.284;9.160;2023-03-14T09:05:24;2.25;;;0.80;;
24206;SDS011;12351;52.284;9.160;2023-03-14T09:08:11;1.60;;;0.80;;
24206;SDS011;12351;52.284;9.160;2023-03-14T09:11:02;3.35;;;0.80;;
24206;SDS011;12351;52.284;9.160;2023-03-14T09:13:51;1.25;;;0.70;;
24206;SDS011;12351;52.284;9.160;2023-03-14T09:16:44;1.67;;;0.85;;
24206;SDS011;12351;52.284;9.160;2023-03-14T09:19:35;3.05;;;2.10;;
24206;SDS011;12351;52.284;9.160;2023-03-14T09:22:28;1.57;;;0.70;;
24206;SDS011;12351;52.284;9.160;2023-03-14T09:25:18;1.20;;;0.80;;
24206;SDS011;12351;52.284;9.160;2023-03-14T09:28:08;1.17;;;0.85;;
24206;SDS011;12351;52.284;9.160;2023-03-14T09:31:04;1.82;;;1.02;;
24206;SDS011;12351;52.284;9.160;2023-03-14T09:33:48;3.08;;;0.93;;
24206;SDS011;12351;52.284;9.160;2023-03-14T09:36:38;2.75;;;1.05;;
24206;SDS011;12351;52.284;9.160;2023-03-14T09:39:28;2.80;;;0.93;;
24206;SDS011;12351;52.284;9.160;2023-03-14T09:42:21;1.10;;;1.00;;
24206;SDS011;12351;52.284;9.160;2023-03-14T09:45:12;3.50;;;0.98;;
24206;SDS011;12351;52.284;9.160;2023-03-14T09:48:04;4.87;;;2.70;;
24206;SDS011;12351;52.284;9.160;2023-03-14T09:50:54;1.80;;;1.15;;
24206;SDS011;12351;52.284;9.160;2023-03-14T09:53:46;1.45;;;1.10;;
24206;SDS011;12351;52.284;9.160;2023-03-14T09:56:36;2.67;;;1.32;;
24206;SDS011;12351;52.284;9.160;2023-03-14T09:59:27;1.72;;;1.25;;
24206;SDS011;12351;52.284;9.160;2023-03-14T10:05:13;2.45;;;1.57;;
24206;SDS011;12351;52.284;9.160;2023-03-14T10:07:57;1.85;;;1.32;;
24206;SDS011;12351;52.284;9.160;2023-03-14T10:10:50;2.40;;;1.60;;
24206;SDS011;12351;52.284;9.160;2023-03-14T10:13:46;1.70;;;1.60;;
24206;SDS011;12351;52.284;9.160;2023-03-14T10:16:32;2.27;;;1.80;;
24206;SDS011;12351;52.284;9.160;2023-03-14T10:19:20;2.10;;;1.70;;
24206;SDS011;12351;52.284;9.160;2023-03-14T10:22:12;1.87;;;1.67;;
24206;SDS011;12351;52.284;9.160;2023-03-14T10:25:04;2.20;;;2.00;;
24206;SDS011;12351;52.284;9.160;2023-03-14T10:27:54;3.97;;;2.03;;
24206;SDS011;12351;52.284;9.160;2023-03-14T10:30:45;2.60;;;2.10;;
24206;SDS011;12351;52.284;9.160;2023-03-14T10:33:36;2.27;;;2.08;;
24206;SDS011;12351;52.284;9.160;2023-03-14T10:36:27;2.40;;;1.95;;
24206;SDS011;12351;52.284;9.160;2023-03-14T10:45:02;2.60;;;2.40;;
24206;SDS011;12351;52.284;9.160;2023-03-14T10:47:51;2.60;;;2.40;;
24206;SDS011;12351;52.284;9.160;2023-03-14T10:53:33;2.47;;;2.27;;
24206;SDS011;12351;52.284;9.160;2023-03-14T10:56:21;5.08;;;2.30;;
24206;SDS011;12351;52.284;9.160;2023-03-14T10:59:19;4.08;;;1.92;;
24206;SDS011;12351;52.284;9.160;2023-03-14T11:02:15;5.83;;;0.80;;
24206;SDS011;12351;52.284;9.160;2023-03-14T11:07:52;1.15;;;0.57;;
24206;SDS011;12351;52.284;9.160;2023-03-14T11:10:45;3.02;;;0.55;;
24206;SDS011;12351;52.284;9.160;2023-03-14T11:13:38;2.25;;;0.60;;
24206;SDS011;12351;52.284;9.160;2023-03-14T11:28:00;0.78;;;0.20;;
24206;SDS011;12351;52.284;9.160;2023-03-14T11:33:38;0.10;;;0.10;;
24206;SDS011;12351;52.284;9.160;2023-03-14T11:36:31;0.25;;;0.20;;
24206;SDS011;12351;52.284;9.160;2023-03-14T11:39:21;0.62;;;0.30;;
24206;SDS011;12351;52.284;9.160;2023-03-14T11:42:11;0.20;;;0.20;;
24206;SDS011;12351;52.284;9.160;2023-03-14T11:45:03;1.55;;;0.30;;
24206;SDS011;12351;52.284;9.160;2023-03-14T11:47:55;0.57;;;0.20;;
24206;SDS011;12351;52.284;9.160;2023-03-14T11:50:44;1.62;;;0.50;;
24206;SDS011;12351;52.284;9.160;2023-03-14T11:53:37;0.35;;;0.30;;
24206;SDS011;12351;52.284;9.160;2023-03-14T11:59:16;0.78;;;0.30;;
24206;SDS011;12351;52.284;9.160;2023-03-14T12:02:05;1.52;;;0.20;;
24206;SDS011;12351;52.284;9.160;2023-03-14T12:04:58;0.25;;;0.25;;
24206;SDS011;12351;52.284;9.160;2023-03-14T12:13:28;2.83;;;0.37;;
24206;SDS011;12351;52.284;9.160;2023-03-14T12:19:26;2.20;;;0.47;;
24206;SDS011;12351;52.284;9.160;2023-03-14T12:22:00;0.55;;;0.42;;
24206;SDS011;12351;52.284;9.160;2023-03-14T12:24:49;2.15;;;0.60;;
24206;SDS011;12351;52.284;9.160;2023-03-14T12:30:25;2.62;;;0.42;;
24206;SDS011;12351;52.284;9.160;2023-03-14T12:36:11;1.60;;;0.60;;
24206;SDS011;12351;52.284;9.160;2023-03-14T12:39:00;2.33;;;0.50;;
24206;SDS011;12351;52.284;9.160;2023-03-14T12:41:51;2.22;;;0.70;;
24206;SDS011;12351;52.284;9.160;2023-03-14T12:44:43;5.37;;;0.80;;
24206;SDS011;12351;52.284;9.160;2023-03-14T12:50:24;5.05;;;1.10;;
24206;SDS011;12351;52.284;9.160;2023-03-14T12:56:08;6.90;;;0.95;;
24206;SDS011;12351;52.284;9.160;2023-03-14T12:59:01;6.83;;;1.00;;
24206;SDS011;12351;52.284;9.160;2023-03-14T13:01:49;7.05;;;0.90;;
24206;SDS011;12351;52.284;9.160;2023-03-14T13:07:34;5.25;;;1.10;;
24206;SDS011;12351;52.284;9.160;2023-03-14T13:10:25;8.73;;;2.55;;
24206;SDS011;12351;52.284;9.160;2023-03-14T13:15:55;11.27;;;1.07;;
24206;SDS011;12351;52.284;9.160;2023-03-14T13:21:34;6.58;;;1.30;;
24206;SDS011;12351;52.284;9.160;2023-03-14T13:24:25;4.75;;;1.80;;
24206;SDS011;12351;52.284;9.160;2023-03-14T13:27:17;6.05;;;1.17;;
24206;SDS011;12351;52.284;9.160;2023-03-14T13:32:59;5.75;;;1.05;;
24206;SDS011;12351;52.284;9.160;2023-03-14T13:35:49;7.58;;;1.30;;
24206;SDS011;12351;52.284;9.160;2023-03-14T13:38:39;14.10;;;1.63;;
24206;SDS011;12351;52.284;9.160;2023-03-14T13:41:31;9.00;;;1.67;;
24206;SDS011;12351;52.284;9.160;2023-03-14T13:44:23;13.05;;;1.92;;
24206;SDS011;12351;52.284;9.160;2023-03-14T13:47:14;9.80;;;1.32;;
24206;SDS011;12351;52.284;9.160;2023-03-14T13:50:01;10.45;;;1.45;;
24206;SDS011;12351;52.284;9.160;2023-03-14T13:52:54;8.58;;;1.60;;
24206;SDS011;12351;52.284;9.160;2023-03-14T13:55:40;11.78;;;1.82;;
24206;SDS011;12351;52.284;9.160;2023-03-14T13:58:33;16.93;;;2.27;;
24206;SDS011;12351;52.284;9.160;2023-03-14T14:04:16;12.93;;;1.73;;
24206;SDS011;12351;52.284;9.160;2023-03-14T14:07:08;11.48;;;1.75;;
24206;SDS011;12351;52.284;9.160;2023-03-14T14:10:01;15.40;;;2.08;;
24206;SDS011;12351;52.284;9.160;2023-03-14T14:15:42;14.43;;;3.00;;
24206;SDS011;12351;52.284;9.160;2023-03-14T14:18:34;17.57;;;2.62;;
24206;SDS011;12351;52.284;9.160;2023-03-14T14:21:24;13.58;;;2.15;;
24206;SDS011;12351;52.284;9.160;2023-03-14T14:24:17;14.47;;;2.60;;
24206;SDS011;12351;52.284;9.160;2023-03-14T14:30:01;17.40;;;1.70;;
24206;SDS011;12351;52.284;9.160;2023-03-14T14:32:50;11.65;;;1.65;;
24206;SDS011;12351;52.284;9.160;2023-03-14T14:35:41;14.45;;;2.50;;
24206;SDS011;12351;52.284;9.160;2023-03-14T14:38:32;16.80;;;1.85;;
24206;SDS011;12351;52.284;9.160;2023-03-14T14:41:26;13.13;;;2.00;;
24206;SDS011;12351;52.284;9.160;2023-03-14T14:44:16;16.00;;;2.25;;
24206;SDS011;12351;52.284;9.160;2023-03-14T14:49:59;12.65;;;1.72;;
24206;SDS011;12351;52.284;9.160;2023-03-14T14:52:48;12.80;;;1.95;;
24206;SDS011;12351;52.284;9.160;2023-03-14T14:58:28;15.23;;;2.12;;
24206;SDS011;12351;52.284;9.160;2023-03-14T15:01:19;7.65;;;1.22;;
24206;SDS011;12351;52.284;9.160;2023-03-14T15:04:11;15.68;;;2.00;;
24206;SDS011;12351;52.284;9.160;2023-03-14T15:07:03;13.60;;;1.55;;
24206;SDS011;12351;52.284;9.160;2023-03-14T15:09:55;9.05;;;1.40;;
24206;SDS011;12351;52.284;9.160;2023-03-14T15:12:45;7.47;;;1.40;;
24206;SDS011;12351;52.284;9.160;2023-03-14T15:15:36;9.03;;;1.20;;
24206;SDS011;12351;52.284;9.160;2023-03-14T15:18:28;9.33;;;1.55;;
24206;SDS011;12351;52.284;9.160;2023-03-14T15:21:19;5.75;;;1.50;;
24206;SDS011;12351;52.284;9.160;2023-03-14T15:24:09;13.68;;;1.30;;
24206;SDS011;12351;52.284;9.160;2023-03-14T15:26:58;9.25;;;1.22;;
24206;SDS011;12351;52.284;9.160;2023-03-14T15:29:49;4.92;;;1.12;;
24206;SDS011;12351;52.284;9.160;2023-03-14T15:32:41;7.10;;;1.07;;
24206;SDS011;12351;52.284;9.160;2023-03-14T15:35:35;6.40;;;1.40;;
24206;SDS011;12351;52.284;9.160;2023-03-14T15:38:26;8.45;;;1.17;;
24206;SDS011;12351;52.284;9.160;2023-03-14T15:41:16;14.55;;;6.15;;
24206;SDS011;12351;52.284;9.160;2023-03-14T15:44:07;6.37;;;1.50;;
24206;SDS011;12351;52.284;9.160;2023-03-14T15:46:56;8.35;;;2.83;;
24206;SDS011;12351;52.284;9.160;2023-03-14T15:49:45;10.25;;;1.57;;
24206;SDS011;12351;52.284;9.160;2023-03-14T15:52:37;9.93;;;1.62;;
24206;SDS011;12351;52.284;9.160;2023-03-14T15:55:28;9.00;;;1.42;;
24206;SDS011;12351;52.284;9.160;2023-03-14T15:58:19;14.83;;;1.40;;
24206;SDS011;12351;52.284;9.160;2023-03-14T16:01:11;7.27;;;1.43;;
24206;SDS011;12351;52.284;9.160;2023-03-14T16:04:01;9.48;;;1.52;;
24206;SDS011;12351;52.284;9.160;2023-03-14T16:06:54;10.18;;;1.37;;
24206;SDS011;12351;52.284;9.160;2023-03-14T16:09:45;6.70;;;1.07;;
24206;SDS011;12351;52.284;9.160;2023-03-14T16:12:33;7.78;;;1.20;;
24206;SDS011;12351;52.284;9.160;2023-03-14T16:15:25;7.20;;;1.17;;
24206;SDS011;12351;52.284;9.160;2023-03-14T16:18:17;5.97;;;1.07;;
24206;SDS011;12351;52.284;9.160;2023-03-14T16:21:11;6.07;;;1.07;;
24206;SDS011;12351;52.284;9.160;2023-03-14T16:24:01;6.78;;;1.10;;
24206;SDS011;12351;52.284;9.160;2023-03-14T16:26:53;6.12;;;1.10;;
24206;SDS011;12351;52.284;9.160;2023-03-14T16:29:44;8.25;;;1.20;;
24206;SDS011;12351;52.284;9.160;2023-03-14T16:32:36;13.95;;;1.42;;
24206;SDS011;12351;52.284;9.160;2023-03-14T16:35:28;5.15;;;1.15;;
24206;SDS011;12351;52.284;9.160;2023-03-14T16:38:17;7.87;;;1.45;;
24206;SDS011;12351;52.284;9.160;2023-03-14T16:41:11;7.90;;;1.37;;
24206;SDS011;12351;52.284;9.160;2023-03-14T16:44:00;7.83;;;1.50;;
24206;SDS011;12351;52.284;9.160;2023-03-14T16:46:54;10.18;;;1.30;;
24206;SDS011;12351;52.284;9.160;2023-03-14T16:49:44;14.80;;;1.40;;
24206;SDS011;12351;52.284;9.160;2023-03-14T16:52:36;9.48;;;1.40;;
24206;SDS011;12351;52.284;9.160;2023-03-14T16:55:24;7.30;;;1.27;;
24206;SDS011;12351;52.284;9.160;2023-03-14T16:58:14;6.25;;;1.62;;
24206;SDS011;12351;52.284;9.160;2023-03-14T17:01:04;10.58;;;1.30;;
24206;SDS011;12351;52.284;9.160;2023-03-14T17:03:56;8.38;;;1.47;;
24206;SDS011;12351;52.284;9.160;2023-03-14T17:06:46;7.70;;;1.17;;
24206;SDS011;12351;52.284;9.160;2023-03-14T17:09:36;5.33;;;1.22;;
24206;SDS011;12351;52.284;9.160;2023-03-14T17:12:30;4.37;;;0.98;;
24206;SDS011;12351;52.284;9.160;2023-03-14T17:15:20;5.30;;;1.75;;
24206;SDS011;12351;52.284;9.160;2023-03-14T17:18:12;4.42;;;1.32;;
24206;SDS011;12351;52.284;9.160;2023-03-14T17:21:01;8.08;;;1.27;;
24206;SDS011;12351;52.284;9.160;2023-03-14T17:26:40;8.30;;;2.80;;
24206;SDS011;12351;52.284;9.160;2023-03-14T17:29:30;7.20;;;1.20;;
24206;SDS011;12351;52.284;9.160;2023-03-14T17:32:20;6.75;;;2.20;;
24206;SDS011;12351;52.284;9.160;2023-03-14T17:35:09;7.67;;;1.70;;
24206;SDS011;12351;52.284;9.160;2023-03-14T17:38:01;10.70;;;1.62;;
24206;SDS011;12351;52.284;9.160;2023-03-14T17:40:52;8.98;;;2.15;;
24206;SDS011;12351;52.284;9.160;2023-03-14T17:43:43;3.75;;;1.30;;
24206;SDS011;12351;52.284;9.160;2023-03-14T17:52:13;9.28;;;1.00;;
24206;SDS011;12351;52.284;9.160;2023-03-14T17:55:03;5.33;;;0.98;;
24206;SDS011;12351;52.284;9.160;2023-03-14T17:57:53;9.08;;;1.07;;
24206;SDS011;12351;52.284;9.160;2023-03-14T18:00:44;4.33;;;0.93;;
24206;SDS011;12351;52.284;9.160;2023-03-14T18:03:35;12.63;;;1.70;;
24206;SDS011;12351;52.284;9.160;2023-03-14T18:06:29;8.50;;;1.35;;
24206;SDS011;12351;52.284;9.160;2023-03-14T18:09:17;6.97;;;1.37;;
24206;SDS011;12351;52.284;9.160;2023-03-14T18:12:08;5.47;;;1.30;;
24206;SDS011;12351;52.284;9.160;2023-03-14T18:14:57;10.48;;;1.50;;
24206;SDS011;12351;52.284;9.160;2023-03-14T18:17:48;12.45;;;1.60;;
24206;SDS011;12351;52.284;9.160;2023-03-14T18:20:38;7.90;;;1.32;;
24206;SDS011;12351;52.284;9.160;2023-03-14T18:23:30;7.03;;;0.98;;
24206;SDS011;12351;52.284;9.160;2023-03-14T18:26:20;5.08;;;1.22;;
24206;SDS011;12351;52.284;9.160;2023-03-14T18:29:12;9.10;;;1.30;;
24206;SDS011;12351;52.284;9.160;2023-03-14T18:32:03;7.58;;;1.50;;
24206;SDS011;12351;52.284;9.160;2023-03-14T18:34:52;8.00;;;1.35;;
24206;SDS011;12351;52.284;9.160;2023-03-14T18:37:43;5.83;;;1.20;;
24206;SDS011;12351;52.284;9.160;2023-03-14T18:40:33;14.93;;;1.40;;
24206;SDS011;12351;52.284;9.160;2023-03-14T18:43:23;4.42;;;1.67;;
24206;SDS011;12351;52.284;9.160;2023-03-14T18:46:14;4.92;;;1.50;;
24206;SDS011;12351;52.284;9.160;2023-03-14T18:49:05;11.28;;;2.70;;